sensor_id;sensor_type;location;lat;lon;timestamp;P1;durP1;ratioP1;P2;durP2;ratioP2
13374;SDS011;6756;51.354;15.754;2023-10-13T00:01:48;10.13;;;5.87;;
13374;SDS011;6756;51.354;15.754;2023-10-13T00:05:51;12.97;;;7.00;;
13374;SDS011;6756;51.354;15.754;2023-10-13T00:09:59;8.53;;;6.00;;
13374;SDS011;6756;51.354;15.754;2023-10-13T00:13:59;9.70;;;6.47;;
13374;SDS011;6756;51.354;15.754;2023-10-13T00:18:04;10.93;;;6.37;;
13374;SDS011;6756;51.354;15.754;2023-10-13T00:22:15;8.67;;;6.53;;
13374;SDS011;6756;51.354;15.754;2023-10-13T00:26:16;10.13;;;6.73;;
13374;SDS011;6756;51.354;15.754;2023-10-13T00:30:18;9.60;;;6.30;;
13374;SDS011;6756;51.354;15.754;2023-10-13T00:34:34;10.77;;;7.03;;
13374;SDS011;6756;51.354;15.754;2023-10-13T00:38:37;8.43;;;6.30;;
13374;SDS011;6756;51.354;15.754;2023-10-13T00:42:38;11.93;;;7.20;;
13374;SDS011;6756;51.354;15.754;2023-10-13T00:46:51;10.80;;;7.23;;
13374;SDS011;6756;51.354;15.754;2023-10-13T00:51:08;10.80;;;7.57;;
13374;SDS011;6756;51.354;15.754;2023-10-13T00:55:28;10.00;;;6.93;;
13374;SDS011;6756;51.354;15.754;2023-10-13T00:59:36;13.77;;;7.10;;
13374;SDS011;6756;51.354;15.754;2023-10-13T01:03:54;9.43;;;6.03;;
13374;SDS011;6756;51.354;15.754;2023-10-13T01:08:03;11.93;;;6.97;;
13374;SDS011;6756;51.354;15.754;2023-10-13T01:16:21;8.60;;;6.47;;
13374;SDS011;6756;51.354;15.754;2023-10-13T01:20:32;8.83;;;6.33;;
13374;SDS011;6756;51.354;15.754;2023-10-13T01:24:39;10.83;;;7.10;;
13374;SDS011;6756;51.354;15.754;2023-10-13T01:28:57;12.37;;;7.37;;
13374;SDS011;6756;51.354;15.754;2023-10-13T01:47:22;7.37;;;6.00;;
13374;SDS011;6756;51.354;15.754;2023-10-13T01:51:28;8.00;;;5.70;;
13374;SDS011;6756;51.354;15.754;2023-10-13T01:55:29;11.30;;;6.30;;
13374;SDS011;6756;51.354;15.754;2023-10-13T02:17:26;8.97;;;7.10;;
13374;SDS011;6756;51.354;15.754;2023-10-13T02:21:54;8.60;;;6.47;;
13374;SDS011;6756;51.354;15.754;2023-10-13T02:26:06;9.93;;;6.27;;
13374;SDS011;6756;51.354;15.754;2023-10-13T02:30:19;8.90;;;6.67;;
13374;SDS011;6756;51.354;15.754;2023-10-13T02:34:24;8.33;;;5.83;;
13374;SDS011;6756;51.354;15.754;2023-10-13T02:38:41;7.93;;;6.43;;
13374;SDS011;6756;51.354;15.754;2023-10-13T02:42:49;8.37;;;6.80;;
13374;SDS011;6756;51.354;15.754;2023-10-13T02:46:52;8.63;;;7.03;;
13374;SDS011;6756;51.354;15.754;2023-10-13T02:50:59;10.03;;;7.27;;
13374;SDS011;6756;51.354;15.754;2023-10-13T02:55:07;8.40;;;6.13;;
13374;SDS011;6756;51.354;15.754;2023-10-13T02:59:26;7.77;;;6.97;;
13374;SDS011;6756;51.354;15.754;2023-10-13T03:07:58;9.07;;;7.00;;
13374;SDS011;6756;51.354;15.754;2023-10-13T03:12:10;9.67;;;7.87;;
13374;SDS011;6756;51.354;15.754;2023-10-13T03:16:16;11.00;;;7.73;;
13374;SDS011;6756;51.354;15.754;2023-10-13T03:20:28;14.47;;;8.93;;
13374;SDS011;6756;51.354;15.754;2023-10-13T03:28:56;10.20;;;8.00;;
13374;SDS011;6756;51.354;15.754;2023-10-13T03:33:00;8.27;;;7.10;;
13374;SDS011;6756;51.354;15.754;2023-10-13T03:37:12;13.07;;;8.40;;
13374;SDS011;6756;51.354;15.754;2023-10-13T03:41:28;11.17;;;8.57;;
13374;SDS011;6756;51.354;15.754;2023-10-13T03:45:33;11.50;;;8.50;;
13374;SDS011;6756;51.354;15.754;2023-10-13T03:49:48;9.80;;;7.57;;
13374;SDS011;6756;51.354;15.754;2023-10-13T03:58:03;10.43;;;8.00;;
13374;SDS011;6756;51.354;15.754;2023-10-13T04:02:08;14.10;;;8.40;;
13374;SDS011;6756;51.354;15.754;2023-10-13T04:06:33;10.80;;;8.50;;
13374;SDS011;6756;51.354;15.754;2023-10-13T04:10:46;10.83;;;8.63;;
13374;SDS011;6756;51.354;15.754;2023-10-13T04:15:06;9.93;;;7.57;;
13374;SDS011;6756;51.354;15.754;2023-10-13T04:19:24;12.67;;;8.20;;
13374;SDS011;6756;51.354;15.754;2023-10-13T04:23:31;9.17;;;7.10;;
13374;SDS011;6756;51.354;15.754;2023-10-13T04:27:59;11.23;;;7.70;;
13374;SDS011;6756;51.354;15.754;2023-10-13T04:37:05;11.10;;;7.80;;
13374;SDS011;6756;51.354;15.754;2023-10-13T04:41:29;9.93;;;7.03;;
13374;SDS011;6756;51.354;15.754;2023-10-13T04:45:51;11.37;;;7.90;;
13374;SDS011;6756;51.354;15.754;2023-10-13T04:50:01;13.40;;;8.40;;
13374;SDS011;6756;51.354;15.754;2023-10-13T04:54:13;10.20;;;7.57;;
13374;SDS011;6756;51.354;15.754;2023-10-13T04:58:26;9.10;;;7.93;;
13374;SDS011;6756;51.354;15.754;2023-10-13T05:02:33;10.03;;;7.87;;
13374;SDS011;6756;51.354;15.754;2023-10-13T05:06:36;9.27;;;7.00;;
13374;SDS011;6756;51.354;15.754;2023-10-13T05:10:46;8.83;;;7.77;;
13374;SDS011;6756;51.354;15.754;2023-10-13T05:15:05;8.57;;;6.47;;
13374;SDS011;6756;51.354;15.754;2023-10-13T05:19:25;10.30;;;7.23;;
13374;SDS011;6756;51.354;15.754;2023-10-13T05:23:44;9.53;;;6.67;;
13374;SDS011;6756;51.354;15.754;2023-10-13T05:28:03;7.70;;;6.57;;
13374;SDS011;6756;51.354;15.754;2023-10-13T05:32:22;9.63;;;7.50;;
13374;SDS011;6756;51.354;15.754;2023-10-13T05:36:41;7.50;;;6.77;;
13374;SDS011;6756;51.354;15.754;2023-10-13T05:41:05;10.97;;;7.83;;
13374;SDS011;6756;51.354;15.754;2023-10-13T05:45:25;11.63;;;8.53;;
13374;SDS011;6756;51.354;15.754;2023-10-13T05:49:44;9.10;;;6.47;;
13374;SDS011;6756;51.354;15.754;2023-10-13T05:54:05;10.73;;;8.70;;
13374;SDS011;6756;51.354;15.754;2023-10-13T05:58:15;11.80;;;8.43;;
13374;SDS011;6756;51.354;15.754;2023-10-13T06:02:42;10.53;;;8.23;;
13374;SDS011;6756;51.354;15.754;2023-10-13T06:07:02;11.83;;;8.27;;
13374;SDS011;6756;51.354;15.754;2023-10-13T06:11:21;12.80;;;8.80;;
13374;SDS011;6756;51.354;15.754;2023-10-13T06:15:40;11.13;;;8.27;;
13374;SDS011;6756;51.354;15.754;2023-10-13T06:19:59;14.83;;;8.80;;
13374;SDS011;6756;51.354;15.754;2023-10-13T06:24:18;12.13;;;8.73;;
13374;SDS011;6756;51.354;15.754;2023-10-13T06:28:37;9.90;;;8.10;;
13374;SDS011;6756;51.354;15.754;2023-10-13T06:32:42;9.73;;;7.87;;
13374;SDS011;6756;51.354;15.754;2023-10-13T06:36:47;9.50;;;7.23;;
13374;SDS011;6756;51.354;15.754;2023-10-13T06:40:48;11.63;;;7.63;;
13374;SDS011;6756;51.354;15.754;2023-10-13T06:44:52;11.40;;;7.20;;
13374;SDS011;6756;51.354;15.754;2023-10-13T06:48:58;8.93;;;7.47;;
13374;SDS011;6756;51.354;15.754;2023-10-13T06:53:02;10.20;;;6.83;;
13374;SDS011;6756;51.354;15.754;2023-10-13T06:57:03;8.00;;;6.40;;
13374;SDS011;6756;51.354;15.754;2023-10-13T07:01:07;10.37;;;6.67;;
13374;SDS011;6756;51.354;15.754;2023-10-13T07:05:13;9.27;;;6.67;;
13374;SDS011;6756;51.354;15.754;2023-10-13T07:09:15;6.77;;;5.53;;
13374;SDS011;6756;51.354;15.754;2023-10-13T07:13:37;7.93;;;5.27;;
13374;SDS011;6756;51.354;15.754;2023-10-13T07:17:51;5.47;;;4.90;;
13374;SDS011;6756;51.354;15.754;2023-10-13T07:21:59;6.70;;;4.70;;
13374;SDS011;6756;51.354;15.754;2023-10-13T07:26:20;6.13;;;4.90;;
13374;SDS011;6756;51.354;15.754;2023-10-13T07:30:23;8.03;;;5.67;;
13374;SDS011;6756;51.354;15.754;2023-10-13T07:34:27;5.30;;;4.00;;
13374;SDS011;6756;51.354;15.754;2023-10-13T07:38:31;5.50;;;4.53;;
13374;SDS011;6756;51.354;15.754;2023-10-13T07:42:37;5.03;;;4.10;;
13374;SDS011;6756;51.354;15.754;2023-10-13T07:46:44;6.87;;;4.93;;
13374;SDS011;6756;51.354;15.754;2023-10-13T07:50:47;5.87;;;4.43;;
13374;SDS011;6756;51.354;15.754;2023-10-13T07:54:58;5.90;;;4.43;;
13374;SDS011;6756;51.354;15.754;2023-10-13T07:59:12;7.13;;;3.87;;
13374;SDS011;6756;51.354;15.754;2023-10-13T08:03:15;6.50;;;4.37;;
13374;SDS011;6756;51.354;15.754;2023-10-13T08:07:17;6.70;;;4.20;;
13374;SDS011;6756;51.354;15.754;2023-10-13T08:11:27;6.20;;;4.10;;
13374;SDS011;6756;51.354;15.754;2023-10-13T08:15:31;4.50;;;3.57;;
13374;SDS011;6756;51.354;15.754;2023-10-13T08:19:32;6.87;;;4.23;;
13374;SDS011;6756;51.354;15.754;2023-10-13T08:23:47;5.47;;;3.20;;
13374;SDS011;6756;51.354;15.754;2023-10-13T08:27:54;4.13;;;3.30;;
13374;SDS011;6756;51.354;15.754;2023-10-13T08:32:13;6.13;;;4.33;;
13374;SDS011;6756;51.354;15.754;2023-10-13T08:36:14;5.00;;;4.30;;
13374;SDS011;6756;51.354;15.754;2023-10-13T08:40:27;3.97;;;3.50;;
13374;SDS011;6756;51.354;15.754;2023-10-13T08:44:56;5.60;;;4.03;;
13374;SDS011;6756;51.354;15.754;2023-10-13T08:49:04;4.43;;;3.63;;
13374;SDS011;6756;51.354;15.754;2023-10-13T08:53:21;6.13;;;3.63;;
13374;SDS011;6756;51.354;15.754;2023-10-13T08:57:32;3.83;;;3.53;;
13374;SDS011;6756;51.354;15.754;2023-10-13T09:01:35;4.63;;;3.77;;
13374;SDS011;6756;51.354;15.754;2023-10-13T09:05:45;5.27;;;3.93;;
13374;SDS011;6756;51.354;15.754;2023-10-13T09:10:02;5.63;;;3.80;;
13374;SDS011;6756;51.354;15.754;2023-10-13T09:14:15;5.60;;;3.60;;
13374;SDS011;6756;51.354;15.754;2023-10-13T09:18:33;3.40;;;3.10;;
13374;SDS011;6756;51.354;15.754;2023-10-13T09:22:46;3.70;;;3.17;;
13374;SDS011;6756;51.354;15.754;2023-10-13T09:27:10;4.77;;;2.97;;
13374;SDS011;6756;51.354;15.754;2023-10-13T09:31:13;3.83;;;3.20;;
13374;SDS011;6756;51.354;15.754;2023-10-13T09:35:26;4.87;;;3.47;;
13374;SDS011;6756;51.354;15.754;2023-10-13T09:39:28;4.93;;;3.10;;
13374;SDS011;6756;51.354;15.754;2023-10-13T09:43:44;5.57;;;3.57;;
13374;SDS011;6756;51.354;15.754;2023-10-13T09:47:46;6.30;;;3.53;;
13374;SDS011;6756;51.354;15.754;2023-10-13T09:51:52;4.20;;;3.80;;
13374;SDS011;6756;51.354;15.754;2023-10-13T09:56:02;5.83;;;3.83;;
13374;SDS011;6756;51.354;15.754;2023-10-13T10:00:18;7.63;;;4.20;;
13374;SDS011;6756;51.354;15.754;2023-10-13T10:04:39;4.20;;;3.80;;
13374;SDS011;6756;51.354;15.754;2023-10-13T10:08:52;5.50;;;3.80;;
13374;SDS011;6756;51.354;15.754;2023-10-13T10:17:41;4.43;;;3.67;;
13374;SDS011;6756;51.354;15.754;2023-10-13T10:21:43;4.83;;;4.00;;
13374;SDS011;6756;51.354;15.754;2023-10-13T10:25:44;4.43;;;3.93;;
13374;SDS011;6756;51.354;15.754;2023-10-13T10:29:55;4.30;;;3.90;;
13374;SDS011;6756;51.354;15.754;2023-10-13T10:33:58;5.17;;;3.93;;
13374;SDS011;6756;51.354;15.754;2023-10-13T10:38:06;3.80;;;3.40;;
13374;SDS011;6756;51.354;15.754;2023-10-13T10:42:25;3.80;;;3.22;;
13374;SDS011;6756;51.354;15.754;2023-10-13T10:46:30;4.00;;;3.50;;
13374;SDS011;6756;51.354;15.754;2023-10-13T10:50:40;5.50;;;2.47;;
13374;SDS011;6756;51.354;15.754;2023-10-13T10:54:58;3.08;;;2.40;;
13374;SDS011;6756;51.354;15.754;2023-10-13T10:58:59;2.45;;;2.13;;
13374;SDS011;6756;51.354;15.754;2023-10-13T11:03:00;3.22;;;2.40;;
13374;SDS011;6756;51.354;15.754;2023-10-13T11:07:01;2.42;;;1.85;;
13374;SDS011;6756;51.354;15.754;2023-10-13T11:11:03;2.38;;;2.05;;
13374;SDS011;6756;51.354;15.754;2023-10-13T11:15:07;2.15;;;1.95;;
13374;SDS011;6756;51.354;15.754;2023-10-13T11:19:33;4.82;;;2.17;;
13374;SDS011;6756;51.354;15.754;2023-10-13T11:23:38;2.75;;;1.98;;
13374;SDS011;6756;51.354;15.754;2023-10-13T11:27:40;2.50;;;1.80;;
13374;SDS011;6756;51.354;15.754;2023-10-13T11:31:51;2.10;;;1.88;;
13374;SDS011;6756;51.354;15.754;2023-10-13T11:35:59;4.10;;;2.47;;
13374;SDS011;6756;51.354;15.754;2023-10-13T11:40:04;2.60;;;1.95;;
13374;SDS011;6756;51.354;15.754;2023-10-13T11:44:12;5.53;;;2.47;;
13374;SDS011;6756;51.354;15.754;2023-10-13T11:48:23;4.85;;;2.70;;
13374;SDS011;6756;51.354;15.754;2023-10-13T11:52:36;3.80;;;2.40;;
13374;SDS011;6756;51.354;15.754;2023-10-13T11:56:37;4.17;;;2.73;;
13374;SDS011;6756;51.354;15.754;2023-10-13T12:00:38;4.53;;;2.37;;
13374;SDS011;6756;51.354;15.754;2023-10-13T12:08:59;3.27;;;2.50;;
13374;SDS011;6756;51.354;15.754;2023-10-13T12:13:18;5.07;;;2.33;;
13374;SDS011;6756;51.354;15.754;2023-10-13T12:17:19;4.03;;;2.50;;
13374;SDS011;6756;51.354;15.754;2023-10-13T12:21:27;6.63;;;2.47;;
13374;SDS011;6756;51.354;15.754;2023-10-13T12:25:29;5.07;;;2.87;;
13374;SDS011;6756;51.354;15.754;2023-10-13T12:29:47;5.93;;;2.67;;
13374;SDS011;6756;51.354;15.754;2023-10-13T12:33:52;4.53;;;2.30;;
13374;SDS011;6756;51.354;15.754;2023-10-13T12:37:53;3.93;;;2.80;;
13374;SDS011;6756;51.354;15.754;2023-10-13T12:42:04;5.70;;;2.73;;
13374;SDS011;6756;51.354;15.754;2023-10-13T12:46:25;4.13;;;2.70;;
13374;SDS011;6756;51.354;15.754;2023-10-13T12:50:44;6.80;;;2.80;;
13374;SDS011;6756;51.354;15.754;2023-10-13T12:55:09;4.20;;;2.73;;
13374;SDS011;6756;51.354;15.754;2023-10-13T12:59:15;5.03;;;3.37;;
13374;SDS011;6756;51.354;15.754;2023-10-13T13:03:19;5.53;;;3.20;;
13374;SDS011;6756;51.354;15.754;2023-10-13T13:07:20;6.10;;;3.60;;
13374;SDS011;6756;51.354;15.754;2023-10-13T13:11:20;7.53;;;3.30;;
13374;SDS011;6756;51.354;15.754;2023-10-13T13:15:22;10.17;;;3.77;;
13374;SDS011;6756;51.354;15.754;2023-10-13T13:19:23;9.20;;;3.70;;
13374;SDS011;6756;51.354;15.754;2023-10-13T13:23:26;6.77;;;3.10;;
13374;SDS011;6756;51.354;15.754;2023-10-13T13:27:26;10.50;;;3.83;;
13374;SDS011;6756;51.354;15.754;2023-10-13T13:31:27;6.03;;;3.53;;
13374;SDS011;6756;51.354;15.754;2023-10-13T13:35:34;8.20;;;3.80;;
13374;SDS011;6756;51.354;15.754;2023-10-13T13:39:35;8.17;;;3.70;;
13374;SDS011;6756;51.354;15.754;2023-10-13T13:43:43;6.20;;;3.60;;
13374;SDS011;6756;51.354;15.754;2023-10-13T13:47:52;8.60;;;3.67;;
13374;SDS011;6756;51.354;15.754;2023-10-13T13:51:54;7.77;;;3.70;;
13374;SDS011;6756;51.354;15.754;2023-10-13T13:55:55;6.10;;;3.53;;
13374;SDS011;6756;51.354;15.754;2023-10-13T13:59:56;10.73;;;3.40;;
13374;SDS011;6756;51.354;15.754;2023-10-13T14:03:59;9.07;;;3.60;;
13374;SDS011;6756;51.354;15.754;2023-10-13T14:08:03;9.70;;;3.87;;
13374;SDS011;6756;51.354;15.754;2023-10-13T14:12:11;7.87;;;3.60;;
13374;SDS011;6756;51.354;15.754;2023-10-13T14:16:41;8.63;;;3.67;;
13374;SDS011;6756;51.354;15.754;2023-10-13T14:20:47;10.37;;;3.47;;
13374;SDS011;6756;51.354;15.754;2023-10-13T14:24:48;8.67;;;3.70;;
13374;SDS011;6756;51.354;15.754;2023-10-13T14:28:55;8.77;;;4.43;;
13374;SDS011;6756;51.354;15.754;2023-10-13T14:33:03;9.83;;;3.97;;
13374;SDS011;6756;51.354;15.754;2023-10-13T14:37:11;7.00;;;3.60;;
13374;SDS011;6756;51.354;15.754;2023-10-13T14:41:12;9.30;;;3.47;;
13374;SDS011;6756;51.354;15.754;2023-10-13T14:45:13;6.90;;;4.00;;
13374;SDS011;6756;51.354;15.754;2023-10-13T14:49:16;8.67;;;3.80;;
13374;SDS011;6756;51.354;15.754;2023-10-13T14:53:18;6.03;;;3.43;;
13374;SDS011;6756;51.354;15.754;2023-10-13T14:57:21;7.90;;;3.63;;
13374;SDS011;6756;51.354;15.754;2023-10-13T15:01:24;8.13;;;3.60;;
13374;SDS011;6756;51.354;15.754;2023-10-13T15:05:27;10.80;;;3.93;;
13374;SDS011;6756;51.354;15.754;2023-10-13T15:09:30;8.77;;;3.83;;
13374;SDS011;6756;51.354;15.754;2023-10-13T15:13:31;7.77;;;3.57;;
13374;SDS011;6756;51.354;15.754;2023-10-13T15:17:31;10.27;;;4.20;;
13374;SDS011;6756;51.354;15.754;2023-10-13T15:21:35;4.83;;;3.50;;
13374;SDS011;6756;51.354;15.754;2023-10-13T15:25:36;5.80;;;3.37;;
13374;SDS011;6756;51.354;15.754;2023-10-13T15:29:49;5.77;;;3.40;;
13374;SDS011;6756;51.354;15.754;2023-10-13T15:33:51;9.20;;;3.67;;
13374;SDS011;6756;51.354;15.754;2023-10-13T15:37:57;11.73;;;3.77;;
13374;SDS011;6756;51.354;15.754;2023-10-13T15:41:57;6.50;;;3.60;;
13374;SDS011;6756;51.354;15.754;2023-10-13T15:45:59;7.47;;;3.70;;
13374;SDS011;6756;51.354;15.754;2023-10-13T15:50:00;7.53;;;3.90;;
13374;SDS011;6756;51.354;15.754;2023-10-13T15:54:03;11.70;;;4.13;;
13374;SDS011;6756;51.354;15.754;2023-10-13T15:58:04;9.27;;;3.60;;
13374;SDS011;6756;51.354;15.754;2023-10-13T16:02:08;7.00;;;4.00;;
13374;SDS011;6756;51.354;15.754;2023-10-13T16:06:12;10.13;;;4.53;;
13374;SDS011;6756;51.354;15.754;2023-10-13T16:10:16;8.40;;;3.93;;
13374;SDS011;6756;51.354;15.754;2023-10-13T16:14:17;10.60;;;4.10;;
13374;SDS011;6756;51.354;15.754;2023-10-13T16:18:20;6.97;;;3.67;;
13374;SDS011;6756;51.354;15.754;2023-10-13T16:22:22;9.27;;;4.30;;
13374;SDS011;6756;51.354;15.754;2023-10-13T16:26:22;8.43;;;4.47;;
13374;SDS011;6756;51.354;15.754;2023-10-13T16:30:23;6.13;;;4.33;;
13374;SDS011;6756;51.354;15.754;2023-10-13T16:34:24;9.43;;;4.57;;
13374;SDS011;6756;51.354;15.754;2023-10-13T16:38:25;7.47;;;4.67;;
13374;SDS011;6756;51.354;15.754;2023-10-13T16:42:28;4.80;;;4.20;;
13374;SDS011;6756;51.354;15.754;2023-10-13T16:46:28;9.73;;;4.40;;
13374;SDS011;6756;51.354;15.754;2023-10-13T16:50:29;11.97;;;5.07;;
13374;SDS011;6756;51.354;15.754;2023-10-13T16:54:30;9.57;;;5.30;;
13374;SDS011;6756;51.354;15.754;2023-10-13T16:58:31;12.27;;;5.30;;
13374;SDS011;6756;51.354;15.754;2023-10-13T17:02:33;8.13;;;4.77;;
13374;SDS011;6756;51.354;15.754;2023-10-13T17:06:34;7.77;;;5.27;;
13374;SDS011;6756;51.354;15.754;2023-10-13T17:10:35;8.87;;;5.03;;
13374;SDS011;6756;51.354;15.754;2023-10-13T17:14:37;7.83;;;5.20;;
13374;SDS011;6756;51.354;15.754;2023-10-13T17:18:40;9.40;;;4.57;;
13374;SDS011;6756;51.354;15.754;2023-10-13T17:22:41;8.97;;;5.90;;
13374;SDS011;6756;51.354;15.754;2023-10-13T17:26:42;7.27;;;4.67;;
13374;SDS011;6756;51.354;15.754;2023-10-13T17:30:43;6.97;;;4.50;;
13374;SDS011;6756;51.354;15.754;2023-10-13T17:34:49;11.00;;;5.47;;
13374;SDS011;6756;51.354;15.754;2023-10-13T17:38:51;13.13;;;5.77;;
13374;SDS011;6756;51.354;15.754;2023-10-13T17:42:52;9.00;;;5.47;;
13374;SDS011;6756;51.354;15.754;2023-10-13T17:46:52;8.07;;;5.00;;
13374;SDS011;6756;51.354;15.754;2023-10-13T17:50:54;8.47;;;5.23;;
13374;SDS011;6756;51.354;15.754;2023-10-13T17:54:59;8.50;;;5.27;;
13374;SDS011;6756;51.354;15.754;2023-10-13T17:59:02;12.53;;;5.43;;
13374;SDS011;6756;51.354;15.754;2023-10-13T18:03:07;9.23;;;5.73;;
13374;SDS011;6756;51.354;15.754;2023-10-13T18:07:10;10.30;;;4.80;;
13374;SDS011;6756;51.354;15.754;2023-10-13T18:11:16;11.97;;;5.53;;
13374;SDS011;6756;51.354;15.754;2023-10-13T18:15:18;8.27;;;4.43;;
13374;SDS011;6756;51.354;15.754;2023-10-13T18:19:23;10.10;;;5.03;;
13374;SDS011;6756;51.354;15.754;2023-10-13T18:23:27;7.53;;;4.50;;
13374;SDS011;6756;51.354;15.754;2023-10-13T18:27:28;10.30;;;5.00;;
13374;SDS011;6756;51.354;15.754;2023-10-13T18:31:29;7.33;;;5.00;;
13374;SDS011;6756;51.354;15.754;2023-10-13T18:35:31;11.00;;;5.33;;
13374;SDS011;6756;51.354;15.754;2023-10-13T18:39:31;11.93;;;5.03;;
13374;SDS011;6756;51.354;15.754;2023-10-13T18:43:35;9.37;;;5.10;;
13374;SDS011;6756;51.354;15.754;2023-10-13T18:47:38;10.77;;;5.03;;
13374;SDS011;6756;51.354;15.754;2023-10-13T18:51:39;8.77;;;4.50;;
13374;SDS011;6756;51.354;15.754;2023-10-13T18:55:42;10.70;;;5.13;;
13374;SDS011;6756;51.354;15.754;2023-10-13T18:59:44;9.30;;;4.63;;
13374;SDS011;6756;51.354;15.754;2023-10-13T19:03:46;9.40;;;4.77;;
13374;SDS011;6756;51.354;15.754;2023-10-13T19:07:51;9.90;;;5.00;;
13374;SDS011;6756;51.354;15.754;2023-10-13T19:11:52;10.30;;;4.70;;
13374;SDS011;6756;51.354;15.754;2023-10-13T19:15:56;11.93;;;4.83;;
13374;SDS011;6756;51.354;15.754;2023-10-13T19:20:00;11.27;;;5.87;;
13374;SDS011;6756;51.354;15.754;2023-10-13T19:24:03;8.43;;;4.90;;
13374;SDS011;6756;51.354;15.754;2023-10-13T19:28:05;9.73;;;5.00;;
13374;SDS011;6756;51.354;15.754;2023-10-13T19:32:09;7.70;;;4.43;;
13374;SDS011;6756;51.354;15.754;2023-10-13T19:36:10;8.40;;;5.03;;
13374;SDS011;6756;51.354;15.754;2023-10-13T19:40:13;8.23;;;4.27;;
13374;SDS011;6756;51.354;15.754;2023-10-13T19:44:14;10.00;;;4.37;;
13374;SDS011;6756;51.354;15.754;2023-10-13T19:48:15;8.73;;;4.80;;
13374;SDS011;6756;51.354;15.754;2023-10-13T19:52:16;8.37;;;4.50;;
13374;SDS011;6756;51.354;15.754;2023-10-13T19:56:22;9.90;;;4.50;;
13374;SDS011;6756;51.354;15.754;2023-10-13T20:00:25;10.77;;;4.97;;
13374;SDS011;6756;51.354;15.754;2023-10-13T20:04:32;7.40;;;4.50;;
13374;SDS011;6756;51.354;15.754;2023-10-13T20:08:35;8.43;;;5.00;;
13374;SDS011;6756;51.354;15.754;2023-10-13T20:12:36;6.93;;;4.10;;
13374;SDS011;6756;51.354;15.754;2023-10-13T20:16:40;8.50;;;4.77;;
13374;SDS011;6756;51.354;15.754;2023-10-13T20:20:41;6.67;;;3.63;;
13374;SDS011;6756;51.354;15.754;2023-10-13T20:24:44;7.50;;;4.07;;
13374;SDS011;6756;51.354;15.754;2023-10-13T20:28:45;4.43;;;3.73;;
13374;SDS011;6756;51.354;15.754;2023-10-13T20:32:46;6.33;;;3.57;;
13374;SDS011;6756;51.354;15.754;2023-10-13T20:36:48;10.77;;;3.63;;
13374;SDS011;6756;51.354;15.754;2023-10-13T20:41:02;5.43;;;3.13;;
13374;SDS011;6756;51.354;15.754;2023-10-13T20:45:05;7.50;;;3.63;;
13374;SDS011;6756;51.354;15.754;2023-10-13T20:49:06;8.83;;;4.23;;
13374;SDS011;6756;51.354;15.754;2023-10-13T20:53:11;8.27;;;3.77;;
13374;SDS011;6756;51.354;15.754;2023-10-13T20:57:14;7.47;;;3.97;;
13374;SDS011;6756;51.354;15.754;2023-10-13T21:01:15;5.87;;;4.33;;
13374;SDS011;6756;51.354;15.754;2023-10-13T21:05:16;6.73;;;3.90;;
13374;SDS011;6756;51.354;15.754;2023-10-13T21:09:20;7.40;;;3.43;;
13374;SDS011;6756;51.354;15.754;2023-10-13T21:13:21;9.67;;;3.60;;
13374;SDS011;6756;51.354;15.754;2023-10-13T21:17:22;7.13;;;3.60;;
13374;SDS011;6756;51.354;15.754;2023-10-13T21:21:24;6.43;;;3.63;;
13374;SDS011;6756;51.354;15.754;2023-10-13T21:25:26;8.13;;;3.60;;
13374;SDS011;6756;51.354;15.754;2023-10-13T21:29:27;8.90;;;3.70;;
13374;SDS011;6756;51.354;15.754;2023-10-13T21:33:28;5.47;;;4.07;;
13374;SDS011;6756;51.354;15.754;2023-10-13T21:37:28;7.40;;;3.57;;
13374;SDS011;6756;51.354;15.754;2023-10-13T21:41:29;7.33;;;3.90;;
13374;SDS011;6756;51.354;15.754;2023-10-13T21:45:36;7.80;;;3.47;;
13374;SDS011;6756;51.354;15.754;2023-10-13T21:49:38;6.67;;;3.30;;
13374;SDS011;6756;51.354;15.754;2023-10-13T21:53:38;6.70;;;3.40;;
13374;SDS011;6756;51.354;15.754;2023-10-13T21:57:42;6.83;;;3.20;;
13374;SDS011;6756;51.354;15.754;2023-10-13T22:01:52;8.73;;;3.57;;
13374;SDS011;6756;51.354;15.754;2023-10-13T22:05:53;5.17;;;2.90;;
13374;SDS011;6756;51.354;15.754;2023-10-13T22:09:54;4.80;;;2.90;;
13374;SDS011;6756;51.354;15.754;2023-10-13T22:13:57;5.43;;;3.10;;
13374;SDS011;6756;51.354;15.754;2023-10-13T22:17:59;6.03;;;3.00;;
13374;SDS011;6756;51.354;15.754;2023-10-13T22:22:00;7.67;;;3.50;;
13374;SDS011;6756;51.354;15.754;2023-10-13T22:26:01;5.87;;;3.00;;
13374;SDS011;6756;51.354;15.754;2023-10-13T22:30:02;8.33;;;2.83;;
13374;SDS011;6756;51.354;15.754;2023-10-13T22:34:11;8.43;;;3.50;;
13374;SDS011;6756;51.354;15.754;2023-10-13T22:38:14;5.37;;;3.07;;
13374;SDS011;6756;51.354;15.754;2023-10-13T22:42:15;4.80;;;3.13;;
13374;SDS011;6756;51.354;15.754;2023-10-13T22:46:16;11.67;;;3.50;;
13374;SDS011;6756;51.354;15.754;2023-10-13T22:50:18;6.53;;;2.60;;
13374;SDS011;6756;51.354;15.754;2023-10-13T22:54:24;6.67;;;2.83;;
13374;SDS011;6756;51.354;15.754;2023-10-13T22:58:29;7.90;;;2.70;;
13374;SDS011;6756;51.354;15.754;2023-10-13T23:02:30;8.67;;;3.03;;
13374;SDS011;6756;51.354;15.754;2023-10-13T23:06:30;9.70;;;3.03;;
13374;SDS011;6756;51.354;15.754;2023-10-13T23:10:32;7.90;;;3.37;;
13374;SDS011;6756;51.354;15.754;2023-10-13T23:14:44;6.53;;;3.53;;
13374;SDS011;6756;51.354;15.754;2023-10-13T23:18:50;5.17;;;3.10;;
13374;SDS011;6756;51.354;15.754;2023-10-13T23:22:54;5.63;;;3.10;;
13374;SDS011;6756;51.354;15.754;2023-10-13T23:26:55;5.73;;;3.07;;
13374;SDS011;6756;51.354;15.754;2023-10-13T23:30:56;7.20;;;2.97;;
13374;SDS011;6756;51.354;15.754;2023-10-13T23:34:57;5.47;;;2.83;;
13374;SDS011;6756;51.354;15.754;2023-10-13T23:38:58;6.73;;;2.73;;
13374;SDS011;6756;51.354;15.754;2023-10-13T23:43:22;4.97;;;3.10;;
13374;SDS011;6756;51.354;15.754;2023-10-13T23:47:24;9.77;;;3.17;;
13374;SDS011;6756;51.354;15.754;2023-10-13T23:51:27;5.90;;;2.77;;
13374;SDS011;6756;51.354;15.754;2023-10-13T23:55:30;6.20;;;2.70;;
13374;SDS011;6756;51.354;15.754;2023-10-13T23:59:32;8.47;;;3.17;;
